sensor_id;sensor_type;location;lat;lon;timestamp;P1;durP1;ratioP1;P2;durP2;ratioP2
46765;SDS011;32527;51.986;5.842;2023-08-17T00:01:41;17.58;;;16.50;;
46765;SDS011;32527;51.986;5.842;2023-08-17T00:04:08;19.52;;;18.48;;
46765;SDS011;32527;51.986;5.842;2023-08-17T00:06:34;20.52;;;19.52;;
46765;SDS011;32527;51.986;5.842;2023-08-17T00:09:00;23.60;;;22.50;;
46765;SDS011;32527;51.986;5.842;2023-08-17T00:11:26;17.27;;;16.35;;
46765;SDS011;32527;51.986;5.842;2023-08-17T00:13:52;19.20;;;18.25;;
46765;SDS011;32527;51.986;5.842;2023-08-17T00:16:18;18.58;;;17.52;;
46765;SDS011;32527;51.986;5.842;2023-08-17T00:18:44;19.80;;;18.77;;
46765;SDS011;32527;51.986;5.842;2023-08-17T00:21:10;18.25;;;17.33;;
46765;SDS011;32527;51.986;5.842;2023-08-17T00:23:36;17.40;;;16.02;;
46765;SDS011;32527;51.986;5.842;2023-08-17T00:26:03;18.40;;;17.33;;
46765;SDS011;32527;51.986;5.842;2023-08-17T00:28:29;20.95;;;19.88;;
46765;SDS011;32527;51.986;5.842;2023-08-17T00:30:55;19.50;;;18.42;;
46765;SDS011;32527;51.986;5.842;2023-08-17T00:33:21;29.80;;;28.30;;
46765;SDS011;32527;51.986;5.842;2023-08-17T00:35:47;18.30;;;17.25;;
46765;SDS011;32527;51.986;5.842;2023-08-17T00:38:14;21.50;;;20.02;;
46765;SDS011;32527;51.986;5.842;2023-08-17T00:40:40;20.20;;;19.05;;
46765;SDS011;32527;51.986;5.842;2023-08-17T00:43:06;20.55;;;19.25;;
46765;SDS011;32527;51.986;5.842;2023-08-17T00:45:32;17.15;;;16.25;;
46765;SDS011;32527;51.986;5.842;2023-08-17T00:47:58;21.27;;;19.85;;
46765;SDS011;32527;51.986;5.842;2023-08-17T00:50:25;20.60;;;19.23;;
46765;SDS011;32527;51.986;5.842;2023-08-17T00:52:51;19.83;;;18.83;;
46765;SDS011;32527;51.986;5.842;2023-08-17T00:55:18;19.42;;;18.40;;
46765;SDS011;32527;51.986;5.842;2023-08-17T00:57:44;15.45;;;14.32;;
46765;SDS011;32527;51.986;5.842;2023-08-17T01:00:11;18.60;;;17.48;;
46765;SDS011;32527;51.986;5.842;2023-08-17T01:02:38;20.85;;;19.83;;
46765;SDS011;32527;51.986;5.842;2023-08-17T01:05:07;17.58;;;16.63;;
46765;SDS011;32527;51.986;5.842;2023-08-17T01:07:33;34.53;;;32.38;;
46765;SDS011;32527;51.986;5.842;2023-08-17T01:09:59;17.02;;;16.13;;
46765;SDS011;32527;51.986;5.842;2023-08-17T01:12:30;20.45;;;19.45;;
46765;SDS011;32527;51.986;5.842;2023-08-17T01:15:01;17.90;;;17.00;;
46765;SDS011;32527;51.986;5.842;2023-08-17T01:18:15;19.20;;;18.23;;
46765;SDS011;32527;51.986;5.842;2023-08-17T01:20:23;17.77;;;16.88;;
46765;SDS011;32527;51.986;5.842;2023-08-17T01:22:50;16.95;;;15.90;;
46765;SDS011;32527;51.986;5.842;2023-08-17T01:25:22;12.70;;;11.80;;
46765;SDS011;32527;51.986;5.842;2023-08-17T01:27:48;16.35;;;15.30;;
46765;SDS011;32527;51.986;5.842;2023-08-17T01:30:15;14.57;;;13.75;;
46765;SDS011;32527;51.986;5.842;2023-08-17T01:32:44;14.80;;;13.40;;
46765;SDS011;32527;51.986;5.842;2023-08-17T01:35:25;15.13;;;14.07;;
46765;SDS011;32527;51.986;5.842;2023-08-17T01:37:55;16.25;;;14.63;;
46765;SDS011;32527;51.986;5.842;2023-08-17T01:40:23;11.85;;;10.98;;
46765;SDS011;32527;51.986;5.842;2023-08-17T01:42:49;11.32;;;10.63;;
46765;SDS011;32527;51.986;5.842;2023-08-17T01:45:16;15.27;;;13.85;;
46765;SDS011;32527;51.986;5.842;2023-08-17T01:47:42;9.95;;;9.20;;
46765;SDS011;32527;51.986;5.842;2023-08-17T01:50:08;12.75;;;12.05;;
46765;SDS011;32527;51.986;5.842;2023-08-17T01:52:35;15.25;;;14.40;;
46765;SDS011;32527;51.986;5.842;2023-08-17T01:55:01;15.52;;;14.60;;
46765;SDS011;32527;51.986;5.842;2023-08-17T01:57:27;15.20;;;14.30;;
46765;SDS011;32527;51.986;5.842;2023-08-17T01:59:53;13.23;;;12.23;;
46765;SDS011;32527;51.986;5.842;2023-08-17T02:02:19;11.35;;;10.65;;
46765;SDS011;32527;51.986;5.842;2023-08-17T02:04:46;14.38;;;13.30;;
46765;SDS011;32527;51.986;5.842;2023-08-17T02:07:12;13.52;;;12.73;;
46765;SDS011;32527;51.986;5.842;2023-08-17T02:09:38;12.00;;;10.93;;
46765;SDS011;32527;51.986;5.842;2023-08-17T02:12:05;13.88;;;13.05;;
46765;SDS011;32527;51.986;5.842;2023-08-17T02:14:31;10.95;;;10.32;;
46765;SDS011;32527;51.986;5.842;2023-08-17T02:16:57;18.48;;;17.48;;
46765;SDS011;32527;51.986;5.842;2023-08-17T02:19:23;12.77;;;11.52;;
46765;SDS011;32527;51.986;5.842;2023-08-17T02:21:49;11.07;;;9.65;;
46765;SDS011;32527;51.986;5.842;2023-08-17T02:24:15;11.10;;;10.32;;
46765;SDS011;32527;51.986;5.842;2023-08-17T02:26:41;12.68;;;11.90;;
46765;SDS011;32527;51.986;5.842;2023-08-17T02:29:07;14.20;;;13.40;;
46765;SDS011;32527;51.986;5.842;2023-08-17T02:31:33;32.88;;;31.10;;
46765;SDS011;32527;51.986;5.842;2023-08-17T02:33:59;12.13;;;11.38;;
46765;SDS011;32527;51.986;5.842;2023-08-17T02:36:30;13.60;;;12.55;;
46765;SDS011;32527;51.986;5.842;2023-08-17T02:38:56;12.35;;;11.43;;
46765;SDS011;32527;51.986;5.842;2023-08-17T02:41:22;10.80;;;10.20;;
46765;SDS011;32527;51.986;5.842;2023-08-17T02:43:48;12.13;;;11.30;;
46765;SDS011;32527;51.986;5.842;2023-08-17T02:46:14;11.18;;;10.32;;
46765;SDS011;32527;51.986;5.842;2023-08-17T02:48:40;9.95;;;9.35;;
46765;SDS011;32527;51.986;5.842;2023-08-17T02:51:06;12.68;;;11.43;;
46765;SDS011;32527;51.986;5.842;2023-08-17T02:53:32;13.68;;;12.63;;
46765;SDS011;32527;51.986;5.842;2023-08-17T02:55:58;13.27;;;12.38;;
46765;SDS011;32527;51.986;5.842;2023-08-17T02:58:24;15.32;;;14.32;;
46765;SDS011;32527;51.986;5.842;2023-08-17T03:00:51;11.98;;;11.15;;
46765;SDS011;32527;51.986;5.842;2023-08-17T03:03:17;12.60;;;11.85;;
46765;SDS011;32527;51.986;5.842;2023-08-17T03:05:43;14.63;;;13.63;;
46765;SDS011;32527;51.986;5.842;2023-08-17T03:08:09;13.38;;;12.43;;
46765;SDS011;32527;51.986;5.842;2023-08-17T03:10:36;11.23;;;10.52;;
46765;SDS011;32527;51.986;5.842;2023-08-17T03:13:02;11.77;;;10.65;;
46765;SDS011;32527;51.986;5.842;2023-08-17T03:15:29;11.82;;;11.13;;
46765;SDS011;32527;51.986;5.842;2023-08-17T03:17:56;13.95;;;13.20;;
46765;SDS011;32527;51.986;5.842;2023-08-17T03:20:22;12.48;;;11.77;;
46765;SDS011;32527;51.986;5.842;2023-08-17T03:22:48;11.45;;;10.75;;
46765;SDS011;32527;51.986;5.842;2023-08-17T03:25:14;11.63;;;10.90;;
46765;SDS011;32527;51.986;5.842;2023-08-17T03:27:41;13.80;;;12.90;;
46765;SDS011;32527;51.986;5.842;2023-08-17T03:30:08;10.18;;;9.57;;
46765;SDS011;32527;51.986;5.842;2023-08-17T03:32:34;10.07;;;9.48;;
46765;SDS011;32527;51.986;5.842;2023-08-17T03:35:00;11.50;;;10.80;;
46765;SDS011;32527;51.986;5.842;2023-08-17T03:37:26;12.68;;;11.95;;
46765;SDS011;32527;51.986;5.842;2023-08-17T03:39:52;13.55;;;12.65;;
46765;SDS011;32527;51.986;5.842;2023-08-17T03:42:18;17.40;;;16.30;;
46765;SDS011;32527;51.986;5.842;2023-08-17T03:44:44;12.60;;;11.90;;
46765;SDS011;32527;51.986;5.842;2023-08-17T03:47:10;16.35;;;15.05;;
46765;SDS011;32527;51.986;5.842;2023-08-17T03:49:36;13.45;;;11.82;;
46765;SDS011;32527;51.986;5.842;2023-08-17T03:52:02;13.13;;;12.07;;
46765;SDS011;32527;51.986;5.842;2023-08-17T03:54:28;12.50;;;11.77;;
46765;SDS011;32527;51.986;5.842;2023-08-17T03:56:54;14.20;;;13.25;;
46765;SDS011;32527;51.986;5.842;2023-08-17T03:59:20;12.40;;;11.63;;
46765;SDS011;32527;51.986;5.842;2023-08-17T04:01:47;9.10;;;8.40;;
46765;SDS011;32527;51.986;5.842;2023-08-17T04:04:14;10.55;;;9.85;;
46765;SDS011;32527;51.986;5.842;2023-08-17T04:06:40;11.32;;;10.35;;
46765;SDS011;32527;51.986;5.842;2023-08-17T04:09:06;9.40;;;8.55;;
46765;SDS011;32527;51.986;5.842;2023-08-17T04:11:35;11.75;;;10.73;;
46765;SDS011;32527;51.986;5.842;2023-08-17T04:14:02;12.73;;;11.45;;
46765;SDS011;32527;51.986;5.842;2023-08-17T04:16:29;9.77;;;9.15;;
46765;SDS011;32527;51.986;5.842;2023-08-17T04:18:55;10.07;;;9.18;;
46765;SDS011;32527;51.986;5.842;2023-08-17T04:21:21;10.32;;;9.43;;
46765;SDS011;32527;51.986;5.842;2023-08-17T04:23:47;13.38;;;12.52;;
46765;SDS011;32527;51.986;5.842;2023-08-17T04:26:13;16.83;;;16.00;;
46765;SDS011;32527;51.986;5.842;2023-08-17T04:28:39;9.07;;;8.43;;
46765;SDS011;32527;51.986;5.842;2023-08-17T04:31:05;8.63;;;8.02;;
46765;SDS011;32527;51.986;5.842;2023-08-17T04:33:35;9.55;;;8.95;;
46765;SDS011;32527;51.986;5.842;2023-08-17T04:36:01;9.63;;;8.82;;
46765;SDS011;32527;51.986;5.842;2023-08-17T04:38:27;9.35;;;8.65;;
46765;SDS011;32527;51.986;5.842;2023-08-17T04:40:54;9.50;;;8.90;;
46765;SDS011;32527;51.986;5.842;2023-08-17T04:43:20;9.15;;;8.48;;
46765;SDS011;32527;51.986;5.842;2023-08-17T04:45:47;10.90;;;10.25;;
46765;SDS011;32527;51.986;5.842;2023-08-17T04:48:14;9.00;;;8.43;;
46765;SDS011;32527;51.986;5.842;2023-08-17T04:50:40;9.15;;;7.35;;
46765;SDS011;32527;51.986;5.842;2023-08-17T04:53:06;9.02;;;8.15;;
46765;SDS011;32527;51.986;5.842;2023-08-17T04:55:33;9.20;;;8.63;;
46765;SDS011;32527;51.986;5.842;2023-08-17T04:57:59;9.35;;;8.75;;
46765;SDS011;32527;51.986;5.842;2023-08-17T05:00:27;11.30;;;10.35;;
46765;SDS011;32527;51.986;5.842;2023-08-17T05:02:57;10.70;;;9.77;;
46765;SDS011;32527;51.986;5.842;2023-08-17T05:05:26;8.75;;;8.15;;
46765;SDS011;32527;51.986;5.842;2023-08-17T05:07:53;8.20;;;7.70;;
46765;SDS011;32527;51.986;5.842;2023-08-17T05:10:19;11.98;;;10.90;;
46765;SDS011;32527;51.986;5.842;2023-08-17T05:12:46;12.75;;;11.95;;
46765;SDS011;32527;51.986;5.842;2023-08-17T05:15:12;9.35;;;8.75;;
46765;SDS011;32527;51.986;5.842;2023-08-17T05:17:39;11.85;;;10.20;;
46765;SDS011;32527;51.986;5.842;2023-08-17T05:20:06;11.30;;;10.70;;
46765;SDS011;32527;51.986;5.842;2023-08-17T05:22:33;10.25;;;9.55;;
46765;SDS011;32527;51.986;5.842;2023-08-17T05:24:59;10.90;;;10.27;;
46765;SDS011;32527;51.986;5.842;2023-08-17T05:27:26;9.82;;;9.23;;
46765;SDS011;32527;51.986;5.842;2023-08-17T05:29:52;7.75;;;7.25;;
46765;SDS011;32527;51.986;5.842;2023-08-17T05:32:18;10.60;;;10.00;;
46765;SDS011;32527;51.986;5.842;2023-08-17T05:34:47;9.07;;;8.55;;
46765;SDS011;32527;51.986;5.842;2023-08-17T05:37:13;10.77;;;10.18;;
46765;SDS011;32527;51.986;5.842;2023-08-17T05:39:40;11.98;;;11.27;;
46765;SDS011;32527;51.986;5.842;2023-08-17T05:42:06;10.55;;;9.93;;
46765;SDS011;32527;51.986;5.842;2023-08-17T05:44:32;12.20;;;11.32;;
46765;SDS011;32527;51.986;5.842;2023-08-17T05:46:58;10.73;;;9.90;;
46765;SDS011;32527;51.986;5.842;2023-08-17T05:49:25;12.05;;;11.10;;
46765;SDS011;32527;51.986;5.842;2023-08-17T05:51:51;15.45;;;14.45;;
46765;SDS011;32527;51.986;5.842;2023-08-17T05:54:17;12.43;;;11.73;;
46765;SDS011;32527;51.986;5.842;2023-08-17T05:56:43;15.35;;;14.48;;
46765;SDS011;32527;51.986;5.842;2023-08-17T05:59:12;14.40;;;13.52;;
46765;SDS011;32527;51.986;5.842;2023-08-17T06:01:39;15.50;;;14.60;;
46765;SDS011;32527;51.986;5.842;2023-08-17T06:04:05;14.15;;;13.35;;
46765;SDS011;32527;51.986;5.842;2023-08-17T06:06:32;13.77;;;13.07;;
46765;SDS011;32527;51.986;5.842;2023-08-17T06:08:58;19.33;;;18.42;;
46765;SDS011;32527;51.986;5.842;2023-08-17T06:11:24;17.88;;;16.88;;
46765;SDS011;32527;51.986;5.842;2023-08-17T06:13:50;18.38;;;17.27;;
46765;SDS011;32527;51.986;5.842;2023-08-17T06:16:16;17.65;;;16.75;;
46765;SDS011;32527;51.986;5.842;2023-08-17T06:18:42;17.63;;;16.70;;
46765;SDS011;32527;51.986;5.842;2023-08-17T06:21:08;21.75;;;20.38;;
46765;SDS011;32527;51.986;5.842;2023-08-17T06:23:34;20.30;;;19.10;;
46765;SDS011;32527;51.986;5.842;2023-08-17T06:26:00;20.83;;;19.42;;
46765;SDS011;32527;51.986;5.842;2023-08-17T06:28:27;21.35;;;20.25;;
46765;SDS011;32527;51.986;5.842;2023-08-17T06:30:53;23.77;;;22.58;;
46765;SDS011;32527;51.986;5.842;2023-08-17T06:33:20;23.92;;;22.52;;
46765;SDS011;32527;51.986;5.842;2023-08-17T06:35:46;26.80;;;25.50;;
46765;SDS011;32527;51.986;5.842;2023-08-17T06:38:12;25.92;;;24.42;;
46765;SDS011;32527;51.986;5.842;2023-08-17T06:40:38;22.30;;;20.88;;
46765;SDS011;32527;51.986;5.842;2023-08-17T06:43:04;26.10;;;24.85;;
46765;SDS011;32527;51.986;5.842;2023-08-17T06:45:33;20.55;;;19.55;;
46765;SDS011;32527;51.986;5.842;2023-08-17T06:47:59;22.25;;;21.05;;
46765;SDS011;32527;51.986;5.842;2023-08-17T06:50:25;23.67;;;22.55;;
46765;SDS011;32527;51.986;5.842;2023-08-17T06:52:53;23.05;;;21.90;;
46765;SDS011;32527;51.986;5.842;2023-08-17T06:55:19;23.85;;;22.33;;
46765;SDS011;32527;51.986;5.842;2023-08-17T06:57:46;15.55;;;14.75;;
46765;SDS011;32527;51.986;5.842;2023-08-17T07:00:16;17.95;;;16.70;;
46765;SDS011;32527;51.986;5.842;2023-08-17T07:02:45;19.73;;;18.75;;
46765;SDS011;32527;51.986;5.842;2023-08-17T07:05:12;18.20;;;17.20;;
46765;SDS011;32527;51.986;5.842;2023-08-17T07:07:38;41.42;;;39.35;;
46765;SDS011;32527;51.986;5.842;2023-08-17T07:10:04;17.95;;;16.77;;
46765;SDS011;32527;51.986;5.842;2023-08-17T07:12:32;16.63;;;15.68;;
46765;SDS011;32527;51.986;5.842;2023-08-17T07:14:58;21.98;;;20.88;;
46765;SDS011;32527;51.986;5.842;2023-08-17T07:17:24;19.17;;;17.92;;
46765;SDS011;32527;51.986;5.842;2023-08-17T07:19:50;20.48;;;19.48;;
46765;SDS011;32527;51.986;5.842;2023-08-17T07:22:16;24.95;;;23.65;;
46765;SDS011;32527;51.986;5.842;2023-08-17T07:24:42;20.30;;;19.15;;
46765;SDS011;32527;51.986;5.842;2023-08-17T07:27:08;28.38;;;26.60;;
46765;SDS011;32527;51.986;5.842;2023-08-17T07:29:34;24.63;;;23.42;;
46765;SDS011;32527;51.986;5.842;2023-08-17T07:32:01;20.00;;;19.00;;
46765;SDS011;32527;51.986;5.842;2023-08-17T07:34:30;38.20;;;36.00;;
46765;SDS011;32527;51.986;5.842;2023-08-17T07:36:56;28.02;;;26.63;;
46765;SDS011;32527;51.986;5.842;2023-08-17T07:39:22;49.72;;;47.40;;
46765;SDS011;32527;51.986;5.842;2023-08-17T07:41:49;35.97;;;34.38;;
46765;SDS011;32527;51.986;5.842;2023-08-17T07:44:15;41.97;;;39.90;;
46765;SDS011;32527;51.986;5.842;2023-08-17T07:46:41;42.38;;;40.00;;
46765;SDS011;32527;51.986;5.842;2023-08-17T07:49:07;47.65;;;45.40;;
46765;SDS011;32527;51.986;5.842;2023-08-17T07:51:33;40.63;;;38.83;;
46765;SDS011;32527;51.986;5.842;2023-08-17T07:54:00;40.95;;;38.95;;
46765;SDS011;32527;51.986;5.842;2023-08-17T07:56:26;41.45;;;39.58;;
46765;SDS011;32527;51.986;5.842;2023-08-17T07:58:55;39.67;;;37.92;;
46765;SDS011;32527;51.986;5.842;2023-08-17T08:01:21;49.20;;;46.90;;
46765;SDS011;32527;51.986;5.842;2023-08-17T08:03:47;26.75;;;25.42;;
46765;SDS011;32527;51.986;5.842;2023-08-17T08:06:13;20.85;;;19.77;;
46765;SDS011;32527;51.986;5.842;2023-08-17T08:08:42;24.58;;;23.38;;
46765;SDS011;32527;51.986;5.842;2023-08-17T08:11:09;22.23;;;21.00;;
46765;SDS011;32527;51.986;5.842;2023-08-17T08:13:34;24.65;;;23.20;;
46765;SDS011;32527;51.986;5.842;2023-08-17T08:16:01;22.23;;;21.13;;
46765;SDS011;32527;51.986;5.842;2023-08-17T08:18:27;20.88;;;19.60;;
46765;SDS011;32527;51.986;5.842;2023-08-17T08:20:53;20.90;;;19.38;;
46765;SDS011;32527;51.986;5.842;2023-08-17T08:23:18;20.90;;;19.73;;
46765;SDS011;32527;51.986;5.842;2023-08-17T08:25:44;24.48;;;23.20;;
46765;SDS011;32527;51.986;5.842;2023-08-17T08:28:10;20.17;;;19.17;;
46765;SDS011;32527;51.986;5.842;2023-08-17T08:30:36;45.85;;;43.55;;
46765;SDS011;32527;51.986;5.842;2023-08-17T08:33:02;22.42;;;21.20;;
46765;SDS011;32527;51.986;5.842;2023-08-17T08:35:28;21.67;;;20.25;;
46765;SDS011;32527;51.986;5.842;2023-08-17T08:37:54;20.58;;;19.38;;
46765;SDS011;32527;51.986;5.842;2023-08-17T08:40:21;19.30;;;17.77;;
46765;SDS011;32527;51.986;5.842;2023-08-17T08:42:55;21.25;;;19.90;;
46765;SDS011;32527;51.986;5.842;2023-08-17T08:45:22;26.50;;;25.00;;
46765;SDS011;32527;51.986;5.842;2023-08-17T08:47:49;32.53;;;31.00;;
46765;SDS011;32527;51.986;5.842;2023-08-17T08:50:16;29.13;;;27.52;;
46765;SDS011;32527;51.986;5.842;2023-08-17T08:52:50;24.02;;;22.48;;
46765;SDS011;32527;51.986;5.842;2023-08-17T08:55:23;22.15;;;20.98;;
46765;SDS011;32527;51.986;5.842;2023-08-17T08:57:52;24.95;;;23.67;;
46765;SDS011;32527;51.986;5.842;2023-08-17T09:00:19;25.00;;;23.75;;
46765;SDS011;32527;51.986;5.842;2023-08-17T09:02:46;23.85;;;22.17;;
46765;SDS011;32527;51.986;5.842;2023-08-17T09:05:12;22.20;;;21.00;;
46765;SDS011;32527;51.986;5.842;2023-08-17T09:07:39;26.33;;;25.02;;
46765;SDS011;32527;51.986;5.842;2023-08-17T09:10:05;25.42;;;24.08;;
46765;SDS011;32527;51.986;5.842;2023-08-17T09:12:31;20.23;;;19.20;;
46765;SDS011;32527;51.986;5.842;2023-08-17T09:14:57;20.52;;;19.33;;
46765;SDS011;32527;51.986;5.842;2023-08-17T09:17:24;20.23;;;19.02;;
46765;SDS011;32527;51.986;5.842;2023-08-17T09:19:50;28.52;;;27.02;;
46765;SDS011;32527;51.986;5.842;2023-08-17T09:22:36;23.83;;;22.38;;
46765;SDS011;32527;51.986;5.842;2023-08-17T09:25:03;23.73;;;22.30;;
46765;SDS011;32527;51.986;5.842;2023-08-17T09:27:30;21.38;;;20.23;;
46765;SDS011;32527;51.986;5.842;2023-08-17T09:30:08;20.58;;;19.45;;
46765;SDS011;32527;51.986;5.842;2023-08-17T09:32:34;35.83;;;33.53;;
46765;SDS011;32527;51.986;5.842;2023-08-17T09:35:01;24.42;;;23.15;;
46765;SDS011;32527;51.986;5.842;2023-08-17T09:37:31;24.45;;;22.95;;
46765;SDS011;32527;51.986;5.842;2023-08-17T09:39:57;23.23;;;22.00;;
46765;SDS011;32527;51.986;5.842;2023-08-17T09:42:23;25.38;;;24.10;;
46765;SDS011;32527;51.986;5.842;2023-08-17T09:44:50;26.23;;;24.58;;
46765;SDS011;32527;51.986;5.842;2023-08-17T09:47:16;22.23;;;20.67;;
46765;SDS011;32527;51.986;5.842;2023-08-17T09:49:49;25.63;;;24.33;;
46765;SDS011;32527;51.986;5.842;2023-08-17T09:52:15;22.23;;;21.03;;
46765;SDS011;32527;51.986;5.842;2023-08-17T09:54:41;23.75;;;22.23;;
46765;SDS011;32527;51.986;5.842;2023-08-17T09:57:08;23.33;;;21.92;;
46765;SDS011;32527;51.986;5.842;2023-08-17T09:59:35;30.70;;;28.75;;
46765;SDS011;32527;51.986;5.842;2023-08-17T10:02:01;24.08;;;22.23;;
46765;SDS011;32527;51.986;5.842;2023-08-17T10:04:29;27.92;;;26.52;;
46765;SDS011;32527;51.986;5.842;2023-08-17T10:06:59;25.38;;;23.95;;
46765;SDS011;32527;51.986;5.842;2023-08-17T10:09:28;23.67;;;22.27;;
46765;SDS011;32527;51.986;5.842;2023-08-17T10:11:56;26.80;;;25.30;;
46765;SDS011;32527;51.986;5.842;2023-08-17T10:14:29;29.05;;;26.90;;
46765;SDS011;32527;51.986;5.842;2023-08-17T10:17:01;29.45;;;27.67;;
46765;SDS011;32527;51.986;5.842;2023-08-17T10:19:37;23.73;;;22.35;;
46765;SDS011;32527;51.986;5.842;2023-08-17T10:22:12;26.25;;;24.75;;
46765;SDS011;32527;51.986;5.842;2023-08-17T10:24:40;26.92;;;25.38;;
46765;SDS011;32527;51.986;5.842;2023-08-17T10:27:08;28.75;;;26.80;;
46765;SDS011;32527;51.986;5.842;2023-08-17T10:29:36;26.08;;;24.30;;
46765;SDS011;32527;51.986;5.842;2023-08-17T10:32:05;25.58;;;24.08;;
46765;SDS011;32527;51.986;5.842;2023-08-17T10:34:34;23.38;;;21.98;;
46765;SDS011;32527;51.986;5.842;2023-08-17T10:37:01;27.48;;;25.75;;
46765;SDS011;32527;51.986;5.842;2023-08-17T10:39:28;24.08;;;22.67;;
46765;SDS011;32527;51.986;5.842;2023-08-17T10:41:54;33.72;;;31.52;;
46765;SDS011;32527;51.986;5.842;2023-08-17T10:47:39;23.25;;;21.65;;
46765;SDS011;32527;51.986;5.842;2023-08-17T10:50:03;25.92;;;24.35;;
46765;SDS011;32527;51.986;5.842;2023-08-17T10:55:02;28.10;;;26.55;;
46765;SDS011;32527;51.986;5.842;2023-08-17T10:57:34;27.33;;;25.92;;
46765;SDS011;32527;51.986;5.842;2023-08-17T11:02:36;36.40;;;34.30;;
46765;SDS011;32527;51.986;5.842;2023-08-17T11:05:03;26.08;;;24.52;;
46765;SDS011;32527;51.986;5.842;2023-08-17T11:07:39;24.98;;;23.45;;
46765;SDS011;32527;51.986;5.842;2023-08-17T11:10:27;29.85;;;27.90;;
46765;SDS011;32527;51.986;5.842;2023-08-17T11:12:53;27.77;;;26.38;;
46765;SDS011;32527;51.986;5.842;2023-08-17T11:15:25;28.73;;;27.13;;
46765;SDS011;32527;51.986;5.842;2023-08-17T11:17:51;26.98;;;25.65;;
46765;SDS011;32527;51.986;5.842;2023-08-17T11:20:17;23.67;;;22.38;;
46765;SDS011;32527;51.986;5.842;2023-08-17T11:22:44;25.02;;;23.63;;
46765;SDS011;32527;51.986;5.842;2023-08-17T11:25:11;30.55;;;28.95;;
46765;SDS011;32527;51.986;5.842;2023-08-17T11:27:37;24.52;;;23.17;;
46765;SDS011;32527;51.986;5.842;2023-08-17T11:30:04;28.30;;;26.83;;
46765;SDS011;32527;51.986;5.842;2023-08-17T11:32:30;28.13;;;26.52;;
46765;SDS011;32527;51.986;5.842;2023-08-17T11:34:56;27.30;;;25.80;;
46765;SDS011;32527;51.986;5.842;2023-08-17T11:37:22;29.50;;;27.85;;
46765;SDS011;32527;51.986;5.842;2023-08-17T11:39:48;24.08;;;22.85;;
46765;SDS011;32527;51.986;5.842;2023-08-17T11:42:14;26.13;;;24.40;;
46765;SDS011;32527;51.986;5.842;2023-08-17T11:44:40;29.08;;;27.60;;
46765;SDS011;32527;51.986;5.842;2023-08-17T11:47:06;28.00;;;26.30;;
46765;SDS011;32527;51.986;5.842;2023-08-17T11:49:32;32.97;;;30.77;;
46765;SDS011;32527;51.986;5.842;2023-08-17T11:51:59;34.10;;;32.40;;
46765;SDS011;32527;51.986;5.842;2023-08-17T11:54:25;29.15;;;27.55;;
46765;SDS011;32527;51.986;5.842;2023-08-17T11:56:50;28.88;;;27.17;;
46765;SDS011;32527;51.986;5.842;2023-08-17T11:59:16;28.45;;;26.92;;
46765;SDS011;32527;51.986;5.842;2023-08-17T12:01:43;27.10;;;25.40;;
46765;SDS011;32527;51.986;5.842;2023-08-17T12:04:09;24.63;;;23.38;;
46765;SDS011;32527;51.986;5.842;2023-08-17T12:06:42;27.90;;;26.30;;
46765;SDS011;32527;51.986;5.842;2023-08-17T12:09:09;27.60;;;26.17;;
46765;SDS011;32527;51.986;5.842;2023-08-17T12:11:35;24.20;;;22.85;;
46765;SDS011;32527;51.986;5.842;2023-08-17T12:14:07;27.13;;;25.58;;
46765;SDS011;32527;51.986;5.842;2023-08-17T12:16:44;29.48;;;28.00;;
46765;SDS011;32527;51.986;5.842;2023-08-17T12:19:11;28.35;;;26.77;;
46765;SDS011;32527;51.986;5.842;2023-08-17T12:21:37;28.75;;;27.13;;
46765;SDS011;32527;51.986;5.842;2023-08-17T12:24:06;30.98;;;29.27;;
46765;SDS011;32527;51.986;5.842;2023-08-17T12:26:32;30.52;;;28.58;;
46765;SDS011;32527;51.986;5.842;2023-08-17T12:29:00;31.55;;;29.85;;
46765;SDS011;32527;51.986;5.842;2023-08-17T12:31:28;31.55;;;29.85;;
46765;SDS011;32527;51.986;5.842;2023-08-17T12:33:54;27.15;;;25.58;;
46765;SDS011;32527;51.986;5.842;2023-08-17T12:36:20;32.50;;;30.67;;
46765;SDS011;32527;51.986;5.842;2023-08-17T12:38:47;31.15;;;29.60;;
46765;SDS011;32527;51.986;5.842;2023-08-17T12:41:13;32.75;;;31.17;;
46765;SDS011;32527;51.986;5.842;2023-08-17T12:43:39;27.88;;;26.38;;
46765;SDS011;32527;51.986;5.842;2023-08-17T12:46:05;27.30;;;25.90;;
46765;SDS011;32527;51.986;5.842;2023-08-17T12:48:31;28.60;;;27.05;;
46765;SDS011;32527;51.986;5.842;2023-08-17T12:50:57;28.42;;;26.90;;
46765;SDS011;32527;51.986;5.842;2023-08-17T12:53:23;33.30;;;31.20;;
46765;SDS011;32527;51.986;5.842;2023-08-17T12:55:49;31.92;;;30.20;;
46765;SDS011;32527;51.986;5.842;2023-08-17T12:58:15;34.80;;;33.10;;
46765;SDS011;32527;51.986;5.842;2023-08-17T13:00:41;27.52;;;25.55;;
46765;SDS011;32527;51.986;5.842;2023-08-17T13:03:07;31.02;;;29.42;;
46765;SDS011;32527;51.986;5.842;2023-08-17T13:05:33;24.75;;;23.48;;
46765;SDS011;32527;51.986;5.842;2023-08-17T13:07:59;26.15;;;24.58;;
46765;SDS011;32527;51.986;5.842;2023-08-17T13:10:25;23.92;;;22.58;;
46765;SDS011;32527;51.986;5.842;2023-08-17T13:12:51;30.45;;;28.80;;
46765;SDS011;32527;51.986;5.842;2023-08-17T13:15:20;36.22;;;34.28;;
46765;SDS011;32527;51.986;5.842;2023-08-17T13:17:46;30.92;;;29.33;;
46765;SDS011;32527;51.986;5.842;2023-08-17T13:20:13;26.10;;;24.70;;
46765;SDS011;32527;51.986;5.842;2023-08-17T13:22:39;27.75;;;26.25;;
46765;SDS011;32527;51.986;5.842;2023-08-17T13:25:05;29.92;;;28.40;;
46765;SDS011;32527;51.986;5.842;2023-08-17T13:27:31;27.30;;;25.50;;
46765;SDS011;32527;51.986;5.842;2023-08-17T13:29:57;28.20;;;26.40;;
46765;SDS011;32527;51.986;5.842;2023-08-17T13:32:24;30.30;;;28.38;;
46765;SDS011;32527;51.986;5.842;2023-08-17T13:34:50;27.55;;;25.63;;
46765;SDS011;32527;51.986;5.842;2023-08-17T13:37:16;31.52;;;29.75;;
46765;SDS011;32527;51.986;5.842;2023-08-17T13:39:42;25.88;;;24.48;;
46765;SDS011;32527;51.986;5.842;2023-08-17T13:42:09;30.75;;;29.15;;
46765;SDS011;32527;51.986;5.842;2023-08-17T13:44:35;31.65;;;30.08;;
46765;SDS011;32527;51.986;5.842;2023-08-17T13:47:01;36.35;;;34.50;;
46765;SDS011;32527;51.986;5.842;2023-08-17T13:49:27;30.48;;;28.88;;
46765;SDS011;32527;51.986;5.842;2023-08-17T13:51:53;36.67;;;34.78;;
46765;SDS011;32527;51.986;5.842;2023-08-17T13:54:21;28.70;;;26.95;;
46765;SDS011;32527;51.986;5.842;2023-08-17T13:56:47;32.08;;;30.38;;
46765;SDS011;32527;51.986;5.842;2023-08-17T13:59:13;29.92;;;28.33;;
46765;SDS011;32527;51.986;5.842;2023-08-17T14:01:39;36.00;;;34.17;;
46765;SDS011;32527;51.986;5.842;2023-08-17T14:04:06;31.90;;;30.05;;
46765;SDS011;32527;51.986;5.842;2023-08-17T14:06:40;37.83;;;35.63;;
46765;SDS011;32527;51.986;5.842;2023-08-17T14:09:06;31.90;;;29.95;;
46765;SDS011;32527;51.986;5.842;2023-08-17T14:11:32;32.08;;;30.38;;
46765;SDS011;32527;51.986;5.842;2023-08-17T14:13:58;34.25;;;32.50;;
46765;SDS011;32527;51.986;5.842;2023-08-17T14:16:24;36.10;;;34.22;;
46765;SDS011;32527;51.986;5.842;2023-08-17T14:18:50;34.88;;;32.83;;
46765;SDS011;32527;51.986;5.842;2023-08-17T14:21:16;35.25;;;32.97;;
46765;SDS011;32527;51.986;5.842;2023-08-17T14:23:42;33.85;;;32.17;;
46765;SDS011;32527;51.986;5.842;2023-08-17T14:26:09;31.02;;;29.38;;
46765;SDS011;32527;51.986;5.842;2023-08-17T14:28:35;40.42;;;38.33;;
46765;SDS011;32527;51.986;5.842;2023-08-17T14:31:01;36.38;;;34.50;;